Time;durP1;ratioP1;P1;durP2;ratioP2;P2;SDS_P1;SDS_P2;PMS_P1;PMS_P2;Temp;Humidity;BMP_temperature;BMP_pressure;BME280_temperature;BME280_humidity;BME280_pressure;Samples;Min_cycle;Max_cycle;Signal;HPM_P1;HPM_P2
2021/10/16 00:02:31;;;;;;;5.43;2.57;;;;;;;5.55;100.00;94383.78;10197589;29;20036;-68
2021/10/16 00:07:32;;;;;;;7.27;3.20;;;;;;;5.39;100.00;94380.16;10205794;28;20272;-73
2021/10/16 00:12:33;;;;;;;4.00;2.28;;;;;;;5.39;100.00;94378.28;10236773;28;20306;-68
2021/10/16 00:17:33;;;;;;;4.68;2.83;;;;;;;5.41;100.00;94386.81;10236826;28;20499;-65
2021/10/16 00:22:34;;;;;;;9.10;3.55;;;;;;;5.54;100.00;94372.31;10220525;29;20027;-67
2021/10/16 00:27:34;;;;;;;5.10;3.25;;;;;;;5.64;100.00;94380.41;10237251;28;20427;-68
2021/10/16 00:32:35;;;;;;;7.22;3.35;;;;;;;5.48;100.00;94367.97;10210438;28;20032;-69
2021/10/16 00:37:35;;;;;;;8.48;2.88;;;;;;;5.42;100.00;94353.78;10197124;29;20032;-68
2021/10/16 00:42:44;;;;;;;7.47;3.47;;;;;;;5.47;100.00;94363.72;10197203;29;20487;-72
2021/10/16 00:47:44;;;;;;;;;;;;;;;5.47;100.00;94361.06;10213452;29;20090;-68
2021/10/16 00:52:46;;;;;;;5.35;2.10;;;;;;;5.44;100.00;94356.22;10220890;28;19969;-73
2021/10/16 00:57:48;;;;;;;4.38;1.38;;;;;;;5.46;100.00;94359.44;10220957;28;20023;-73
2021/10/16 01:02:49;;;;;;;3.45;2.38;;;;;;;5.52;100.00;94363.75;10235606;28;20028;-72
2021/10/16 01:07:49;;;;;;;4.60;2.13;;;;;;;5.52;100.00;94349.63;10204663;29;20489;-69
2021/10/16 01:12:50;;;;;;;5.82;2.42;;;;;;;5.52;100.00;94350.44;10204283;29;20438;-70
2021/10/16 01:17:53;;;;;;;3.30;2.13;;;;;;;5.55;100.00;94355.25;10203417;29;20504;-74
2021/10/16 01:22:54;;;;;;;2.47;1.77;;;;;;;5.61;100.00;94356.94;10204600;29;20031;-71
2021/10/16 01:27:55;;;;;;;5.75;2.42;;;;;;;5.58;100.00;94353.94;10203666;29;20036;-69
2021/10/16 01:32:55;;;;;;;4.55;2.08;;;;;;;5.57;100.00;94360.38;10202682;29;20087;-74
2021/10/16 01:37:56;;;;;;;4.30;2.05;;;;;;;5.63;100.00;94362.00;10233001;29;20113;-69
2021/10/16 01:42:56;;;;;;;5.30;2.08;;;;;;;5.64;100.00;94356.44;10242112;29;20122;-68
2021/10/16 01:47:57;;;;;;;3.97;1.85;;;;;;;5.65;100.00;94358.03;10241821;29;20089;-69
2021/10/16 01:52:57;;;;;;;3.45;2.13;;;;;;;5.61;100.00;94362.25;10226304;28;20074;-67
2021/10/16 01:58:04;;;;;;;2.88;1.83;;;;;;;5.68;100.00;94363.91;10243156;28;20114;-72
2021/10/16 02:03:08;;;;;;;2.00;1.80;;;;;;;5.70;100.00;94348.50;10241291;28;20038;-69
2021/10/16 02:08:09;;;;;;;2.53;1.73;;;;;;;5.78;100.00;94364.03;10242207;28;20409;-70
2021/10/16 02:13:10;;;;;;;3.67;1.90;;;;;;;5.79;100.00;94363.78;10242042;28;20031;-69
2021/10/16 02:18:10;;;;;;;2.27;1.60;;;;;;;5.84;100.00;94364.88;10241237;29;20592;-73
2021/10/16 02:23:10;;;;;;;3.20;1.80;;;;;;;5.91;100.00;94360.16;10241845;28;20286;-68
2021/10/16 02:28:11;;;;;;;3.80;1.90;;;;;;;5.84;100.00;94365.69;10240998;28;20381;-68
2021/10/16 02:33:11;;;;;;;3.47;2.20;;;;;;;5.81;100.00;94363.53;10240491;28;20075;-70
2021/10/16 02:38:12;;;;;;;4.22;2.05;;;;;;;5.79;100.00;94370.97;10239886;28;20286;-73
2021/10/16 02:43:12;;;;;;;3.20;2.00;;;;;;;5.78;100.00;94380.03;10239448;29;20058;-70
2021/10/16 02:48:12;;;;;;;3.03;1.98;;;;;;;5.82;100.00;94373.16;10239656;29;20664;-70
2021/10/16 02:53:13;;;;;;;3.23;1.90;;;;;;;5.87;100.00;94375.84;10239601;28;20038;-69
2021/10/16 02:58:13;;;;;;;5.53;2.38;;;;;;;5.87;100.00;94359.84;10240012;28;20369;-69
2021/10/16 03:03:14;;;;;;;3.80;1.75;;;;;;;5.81;100.00;94360.84;10238899;29;20498;-73
2021/10/16 03:08:14;;;;;;;6.53;2.20;;;;;;;5.82;100.00;94357.94;10220162;28;20097;-72
2021/10/16 03:13:15;;;;;;;2.83;1.87;;;;;;;5.77;100.00;94367.75;10223316;28;20102;-73
2021/10/16 03:18:15;;;;;;;4.75;2.05;;;;;;;5.78;100.00;94366.69;10238371;29;20298;-68
2021/10/16 03:23:16;;;;;;;3.57;2.17;;;;;;;5.76;100.00;94368.78;10222643;29;20035;-68
2021/10/16 03:28:16;;;;;;;3.25;1.88;;;;;;;5.81;100.00;94361.66;10215831;29;20276;-69
2021/10/16 03:33:17;;;;;;;2.75;1.70;;;;;;;5.79;100.00;94366.44;10197853;29;20547;-73
2021/10/16 03:38:17;;;;;;;3.17;2.23;;;;;;;5.75;100.00;94370.66;10220475;29;20118;-72
2021/10/16 03:43:17;;;;;;;4.40;2.33;;;;;;;5.76;100.00;94374.13;10237627;29;20283;-72
2021/10/16 03:48:18;;;;;;;1.98;1.60;;;;;;;5.72;100.00;94375.69;10237671;29;20812;-72
2021/10/16 03:53:18;;;;;;;2.90;1.88;;;;;;;5.78;100.00;94372.03;10237762;28;20500;-73
2021/10/16 03:58:19;;;;;;;2.97;1.80;;;;;;;5.80;100.00;94372.56;10237339;29;20086;-68
2021/10/16 04:03:19;;;;;;;2.70;2.00;;;;;;;5.75;100.00;94372.50;10236835;28;20035;-73
2021/10/16 04:08:20;;;;;;;2.65;1.70;;;;;;;5.72;100.00;94359.69;10238160;28;20350;-68
2021/10/16 04:13:20;;;;;;;3.42;1.60;;;;;;;5.70;100.00;94364.47;10236676;28;20484;-73
2021/10/16 04:18:21;;;;;;;4.97;2.55;;;;;;;5.73;100.00;94351.44;10236772;29;20045;-74
2021/10/16 04:23:21;;;;;;;2.80;1.80;;;;;;;5.75;100.00;94353.84;10235773;28;20019;-66
2021/10/16 04:28:22;;;;;;;3.63;1.77;;;;;;;5.81;100.00;94363.53;10236964;29;20397;-69
2021/10/16 04:33:22;;;;;;;3.60;2.27;;;;;;;5.80;100.00;94364.56;10236378;28;20308;-70
2021/10/16 04:38:22;;;;;;;4.20;1.60;;;;;;;5.89;100.00;94375.59;10235060;29;20287;-76
2021/10/16 04:43:23;;;;;;;2.33;1.63;;;;;;;5.93;100.00;94374.03;10203471;29;20023;-74
2021/10/16 04:48:23;;;;;;;5.03;1.90;;;;;;;5.87;100.00;94369.72;10219941;29;20622;-70
2021/10/16 04:53:24;;;;;;;3.28;2.03;;;;;;;5.85;100.00;94385.97;10235401;29;20028;-69
2021/10/16 04:58:24;;;;;;;4.10;2.28;;;;;;;5.85;100.00;94393.13;10237143;28;20041;-68
2021/10/16 05:03:25;;;;;;;2.25;1.90;;;;;;;5.85;100.00;94401.97;10235118;28;20114;-68
2021/10/16 05:08:27;;;;;;;2.63;1.88;;;;;;;5.83;100.00;94401.41;10235125;29;20031;-70
2021/10/16 05:13:28;;;;;;;3.72;1.67;;;;;;;5.83;100.00;94412.06;10235146;29;20027;-73
2021/10/16 05:18:28;;;;;;;3.17;1.83;;;;;;;5.89;100.00;94410.25;10235889;28;20027;-69
2021/10/16 05:23:28;;;;;;;3.40;1.73;;;;;;;5.90;100.00;94406.53;10236429;28;20028;-69
2021/10/16 05:28:29;;;;;;;2.50;1.95;;;;;;;5.90;100.00;94415.38;10218519;29;20621;-68
2021/10/16 05:33:29;;;;;;;2.35;1.70;;;;;;;5.95;100.00;94420.72;10235024;29;20142;-70
2021/10/16 05:38:30;;;;;;;2.17;1.60;;;;;;;5.98;100.00;94425.59;10241121;28;20039;-73
2021/10/16 05:43:30;;;;;;;3.78;1.95;;;;;;;6.02;100.00;94431.22;10241642;29;20323;-69
2021/10/16 05:48:31;;;;;;;6.40;2.07;;;;;;;6.06;100.00;94442.22;10242302;28;20023;-68
2021/10/16 05:53:31;;;;;;;5.28;1.83;;;;;;;6.13;100.00;94448.16;10241577;28;20724;-69
2021/10/16 05:58:31;;;;;;;3.20;1.90;;;;;;;6.14;100.00;94452.44;10240994;28;20027;-67
2021/10/16 06:03:32;;;;;;;3.33;2.07;;;;;;;6.15;100.00;94456.69;10224508;29;20353;-71
2021/10/16 06:08:32;;;;;;;3.40;2.25;;;;;;;6.23;100.00;94471.47;10240677;28;20333;-69
2021/10/16 06:13:33;;;;;;;4.95;2.42;;;;;;;6.27;100.00;94472.56;10224331;29;20442;-69
2021/10/16 06:18:44;;;;;;;3.33;2.15;;;;;;;6.32;100.00;94475.28;10215714;28;20067;-74
2021/10/16 06:23:44;;;;;;;2.15;1.58;;;;;;;6.36;100.00;94476.38;10214856;29;20122;-68
2021/10/16 06:28:45;;;;;;;3.85;2.70;;;;;;;6.32;100.00;94483.28;10188625;29;20029;-65
2021/10/16 06:33:45;;;;;;;7.93;3.13;;;;;;;6.52;100.00;94487.19;10236722;29;20525;-68
2021/10/16 06:38:45;;;;;;;4.57;2.63;;;;;;;6.50;100.00;94484.78;10238949;29;20365;-68
2021/10/16 06:43:46;;;;;;;3.45;2.63;;;;;;;6.51;100.00;94491.72;10222069;29;20277;-74
2021/10/16 06:48:46;;;;;;;3.78;2.13;;;;;;;6.48;100.00;94489.56;10239051;28;20468;-67
2021/10/16 06:53:47;;;;;;;2.27;1.90;;;;;;;6.53;100.00;94491.47;10238991;28;20023;-73
2021/10/16 06:58:48;;;;;;;4.10;2.75;;;;;;;6.64;100.00;94503.84;10237911;29;20287;-68
2021/10/16 07:03:49;;;;;;;2.58;1.88;;;;;;;6.73;100.00;94509.56;10235746;28;20038;-69
2021/10/16 07:08:49;;;;;;;4.30;2.20;;;;;;;6.82;100.00;94508.84;10236829;29;20026;-72
2021/10/16 07:13:49;;;;;;;3.08;2.25;;;;;;;6.98;100.00;94523.09;10228241;28;20377;-68
2021/10/16 07:18:50;;;;;;;2.97;2.47;;;;;;;7.00;100.00;94534.34;10238599;28;20512;-69
2021/10/16 07:23:51;;;;;;;5.40;2.80;;;;;;;7.01;100.00;94527.13;10238170;28;20326;-68
2021/10/16 07:28:52;;;;;;;3.25;2.58;;;;;;;7.11;100.00;94529.88;10205446;29;20034;-73
2021/10/16 07:33:55;;;;;;;4.80;3.00;;;;;;;7.01;100.00;94522.59;10234245;28;20054;-73
2021/10/16 07:38:55;;;;;;;4.35;2.90;;;;;;;7.25;100.00;94532.91;10237144;28;20614;-70
2021/10/16 07:43:55;;;;;;;6.47;3.67;;;;;;;7.48;100.00;94542.44;10235436;28;20035;-70
2021/10/16 07:48:56;;;;;;;8.82;2.88;;;;;;;7.61;100.00;94548.41;10234197;29;20100;-68
2021/10/16 07:53:56;;;;;;;4.82;3.38;;;;;;;7.68;100.00;94548.97;10234405;29;20438;-73
2021/10/16 07:58:57;;;;;;;3.90;2.78;;;;;;;7.51;100.00;94543.78;10235277;28;20039;-68
2021/10/16 08:03:59;;;;;;;5.13;3.17;;;;;;;7.61;100.00;94557.22;10236189;28;20031;-70
2021/10/16 08:09:04;;;;;;;8.85;3.75;;;;;;;7.87;100.00;94555.47;10237344;28;20035;-68
2021/10/16 08:14:05;;;;;;;5.32;3.92;;;;;;;7.68;100.00;94557.00;10236610;28;20095;-70
2021/10/16 08:19:05;;;;;;;6.97;4.63;;;;;;;7.78;100.00;94562.38;10236670;28;20066;-67
2021/10/16 08:24:06;;;;;;;7.57;4.70;;;;;;;8.05;100.00;94556.09;10219049;29;20031;-64
2021/10/16 08:29:06;;;;;;;9.07;5.75;;;;;;;8.25;100.00;94567.94;10237510;28;20031;-70
2021/10/16 08:34:06;;;;;;;10.70;4.67;;;;;;;7.90;100.00;94564.88;10233505;28;20521;-67
2021/10/16 08:39:07;;;;;;;8.63;5.00;;;;;;;7.85;100.00;94560.28;10232487;28;20511;-73
2021/10/16 08:44:08;;;;;;;7.53;4.25;;;;;;;8.00;100.00;94561.44;10211978;28;20079;-67
2021/10/16 08:49:13;;;;;;;10.07;5.05;;;;;;;8.00;100.00;94561.44;10224774;28;20042;-69
2021/10/16 08:54:13;;;;;;;15.25;6.97;;;;;;;8.14;100.00;94565.22;10234061;29;20421;-67
2021/10/16 08:59:14;;;;;;;12.98;6.55;;;;;;;8.10;100.00;94566.03;10234568;28;20031;-74
2021/10/16 09:04:21;;;;;;;6.85;4.45;;;;;;;8.46;100.00;94568.88;10232774;29;20035;-74
2021/10/16 09:09:27;;;;;;;8.60;5.25;;;;;;;8.74;100.00;94572.16;10234555;28;20117;-73
2021/10/16 09:14:31;;;;;;;8.75;4.18;;;;;;;9.34;100.00;94573.25;10241269;29;20039;-67
2021/10/16 09:19:38;;;;;;;6.20;3.42;;;;;;;9.57;100.00;94569.22;10241053;28;20050;-73
2021/10/16 09:24:44;;;;;;;8.02;4.60;;;;;;;9.74;100.00;94568.09;10240825;29;20035;-68
2021/10/16 09:29:47;;;;;;;6.57;3.75;;;;;;;9.64;100.00;94563.56;10241677;29;20110;-67
2021/10/16 09:34:49;;;;;;;6.95;3.90;;;;;;;9.75;100.00;94557.09;10240087;28;20062;-68
2021/10/16 09:39:49;;;;;;;5.80;3.40;;;;;;;9.54;100.00;94550.97;10229675;29;20039;-67
2021/10/16 09:44:56;;;;;;;4.83;2.90;;;;;;;9.05;100.00;94562.25;10236914;28;20852;-67
2021/10/16 09:50:02;;;;;;;4.75;3.65;;;;;;;9.24;100.00;94566.00;10240428;28;20027;-68
2021/10/16 09:55:05;;;;;;;4.40;2.75;;;;;;;9.18;100.00;94572.44;10240766;28;20113;-67
2021/10/16 10:00:06;;;;;;;6.85;3.63;;;;;;;9.40;100.00;94572.19;10235446;28;20042;-74
2021/10/16 10:05:08;;;;;;;6.93;3.90;;;;;;;9.37;100.00;94569.22;10239125;29;20038;-66
2021/10/16 10:10:09;;;;;;;5.57;3.80;;;;;;;9.07;100.00;94576.22;10223116;29;20149;-67
2021/10/16 10:15:10;;;;;;;7.40;3.75;;;;;;;9.06;100.00;94578.06;10239802;28;20114;-66
2021/10/16 10:20:12;;;;;;;10.52;4.47;;;;;;;9.01;100.00;94582.63;10237708;28;20348;-69
2021/10/16 10:25:21;;;;;;;6.40;4.45;;;;;;;9.36;100.00;94586.38;10269048;23;20064;-72
2021/10/16 10:30:48;;;;;;;7.15;4.95;;;;;;;9.37;100.00;94583.41;10176343;29;20540;-75
2021/10/16 10:35:57;;;;;;;5.85;3.83;;;;;;;9.38;100.00;94587.72;10153163;29;20048;-73
2021/10/16 10:40:58;;;;;;;6.72;4.10;;;;;;;9.47;100.00;94582.63;10152859;29;20040;-72
2021/10/16 10:46:12;;;;;;;4.47;3.30;;;;;;;9.82;100.00;94591.69;10158574;29;20099;-69
2021/10/16 10:51:35;;;;;;;11.60;3.92;;;;;;;9.67;100.00;94579.13;10159784;29;20036;-69
2021/10/16 10:56:40;;;;;;;2.95;2.40;;;;;;;9.61;100.00;94576.72;10147143;29;20502;-66
2021/10/16 11:02:27;;;;;;;5.85;2.75;;;;;;;9.79;100.00;94578.81;10157662;29;20035;-68
2021/10/16 11:07:46;;;;;;;3.50;2.60;;;;;;;10.08;100.00;94575.53;10142622;29;20115;-72
2021/10/16 11:12:47;;;;;;;4.43;2.58;;;;;;;10.00;100.00;94576.09;10154696;29;20598;-66
2021/10/16 11:17:49;;;;;;;2.75;2.40;;;;;;;10.18;100.00;94578.16;10103977;29;20032;-73
2021/10/16 11:22:54;;;;;;;3.95;2.75;;;;;;;9.92;100.00;94575.56;10140103;29;20048;-66
2021/10/16 11:28:03;;;;;;;4.40;2.67;;;;;;;9.83;100.00;94579.09;10141017;29;20024;-67
2021/10/16 11:33:09;;;;;;;5.57;3.00;;;;;;;9.67;100.00;94592.53;10141157;29;20034;-66
2021/10/16 11:38:11;;;;;;;4.43;3.15;;;;;;;9.83;100.00;94579.88;10156075;29;20032;-68
2021/10/16 11:43:13;;;;;;;5.43;3.28;;;;;;;9.85;100.00;94584.97;10155862;29;20035;-66
2021/10/16 11:48:17;;;;;;;4.20;2.90;;;;;;;9.89;100.00;94581.50;10158100;29;20040;-67
2021/10/16 11:53:23;;;;;;;8.00;3.85;;;;;;;9.96;100.00;94575.81;10157908;29;20533;-68
2021/10/16 11:58:25;;;;;;;4.78;3.53;;;;;;;9.80;100.00;94588.47;10156999;29;20039;-71
2021/10/16 12:03:40;;;;;;;6.15;3.38;;;;;;;9.94;100.00;94579.88;10162369;29;20036;-68
2021/10/16 12:08:50;;;;;;;4.65;3.03;;;;;;;9.78;100.00;94584.47;10157025;29;20593;-68
2021/10/16 12:13:53;;;;;;;4.28;3.00;;;;;;;9.53;100.00;94583.41;10158246;29;20064;-70
2021/10/16 12:19:02;;;;;;;4.47;2.75;;;;;;;9.40;100.00;94592.81;10155719;29;20036;-71
2021/10/16 12:24:19;;;;;;;3.90;2.60;;;;;;;9.12;100.00;94596.84;10155724;29;20056;-72
2021/10/16 12:29:32;;;;;;;4.40;2.90;;;;;;;8.98;100.00;94600.03;10158255;29;20565;-69
2021/10/16 12:34:34;;;;;;;3.63;2.55;;;;;;;9.10;100.00;94601.66;10157998;29;20515;-69
2021/10/16 12:39:39;;;;;;;4.82;2.83;;;;;;;9.02;100.00;94601.09;10156966;29;20528;-66
2021/10/16 12:44:42;;;;;;;5.60;3.25;;;;;;;9.03;100.00;94605.41;10157282;29;20044;-67
2021/10/16 12:50:03;;;;;;;11.20;3.42;;;;;;;9.09;100.00;94616.16;10164228;29;20051;-67
2021/10/16 12:55:14;;;;;;;5.10;2.95;;;;;;;9.17;100.00;94615.63;10164780;29;20471;-68
2021/10/16 13:00:14;;;;;;;4.70;3.60;;;;;;;9.21;100.00;94617.50;10164190;29;20036;-73
2021/10/16 13:05:16;;;;;;;4.97;3.20;;;;;;;9.22;100.00;94624.47;10161039;29;20040;-68
2021/10/16 13:10:17;;;;;;;5.53;3.78;;;;;;;9.15;100.00;94629.28;10155292;29;20486;-72
2021/10/16 13:15:19;;;;;;;7.25;3.90;;;;;;;9.30;100.00;94631.16;10155137;29;20040;-71
2021/10/16 13:20:19;;;;;;;7.97;3.80;;;;;;;9.41;100.00;94635.47;10162631;29;20035;-67
2021/10/16 13:25:19;;;;;;;12.05;4.65;;;;;;;9.53;100.00;94647.78;10163934;29;20814;-67
2021/10/16 13:30:21;;;;;;;8.10;3.60;;;;;;;9.57;100.00;94651.56;10162146;29;20039;-71
2021/10/16 13:35:22;;;;;;;8.15;5.72;;;;;;;9.64;100.00;94654.78;10164342;29;20280;-66
2021/10/16 13:40:22;;;;;;;6.10;4.68;;;;;;;9.75;100.00;94660.94;10162332;29;20165;-67
2021/10/16 13:45:23;;;;;;;7.35;4.10;;;;;;;9.67;100.00;94662.31;10162625;29;20047;-66
2021/10/16 13:50:23;;;;;;;7.95;5.43;;;;;;;9.58;100.00;94662.00;10162550;29;20036;-71
2021/10/16 13:55:23;;;;;;;8.17;4.97;;;;;;;9.43;100.00;94671.94;10162447;29;20410;-72
2021/10/16 14:00:24;;;;;;;12.50;6.47;;;;;;;9.19;100.00;94672.47;10161201;29;20686;-67
2021/10/16 14:05:24;;;;;;;7.03;4.53;;;;;;;9.09;100.00;94672.44;10161111;29;20047;-65
2021/10/16 14:10:25;;;;;;;9.88;5.20;;;;;;;8.96;100.00;94674.56;10160567;29;20276;-68
2021/10/16 14:15:29;;;;;;;11.23;5.93;;;;;;;8.96;100.00;94677.25;10161812;29;20046;-69
2021/10/16 14:20:31;;;;;;;19.10;8.73;;;;;;;8.90;100.00;94683.63;10177548;29;20040;-70
2021/10/16 14:25:31;;;;;;;10.65;6.68;;;;;;;8.92;100.00;94686.88;10160084;29;20063;-68
2021/10/16 14:30:32;;;;;;;10.93;6.00;;;;;;;8.83;100.00;94691.13;10160206;29;20032;-73
2021/10/16 14:35:32;;;;;;;9.23;5.15;;;;;;;8.81;100.00;94699.44;10156767;29;20634;-70
2021/10/16 14:40:33;;;;;;;9.18;5.63;;;;;;;8.80;100.00;94703.16;10176044;29;20036;-68
2021/10/16 14:45:34;;;;;;;6.43;4.78;;;;;;;8.62;100.00;94709.00;10174929;29;20558;-68
2021/10/16 14:50:34;;;;;;;8.77;5.47;;;;;;;8.52;100.00;94715.91;10169443;29;20032;-73
2021/10/16 14:55:35;;;;;;;13.73;6.37;;;;;;;8.42;100.00;94715.84;10176725;29;20123;-70
2021/10/16 15:00:36;;;;;;;10.30;6.78;;;;;;;8.46;100.00;94727.66;10143252;29;20296;-68
2021/10/16 15:05:38;;;;;;;13.43;7.63;;;;;;;8.45;100.00;94726.06;10137399;29;20064;-74
2021/10/16 15:10:41;;;;;;;13.10;7.95;;;;;;;8.37;100.00;94735.38;10119688;29;20463;-74
2021/10/16 15:15:42;;;;;;;13.20;6.75;;;;;;;8.31;100.00;94751.66;10119367;29;20060;-74
2021/10/16 15:20:42;;;;;;;10.68;6.40;;;;;;;8.35;100.00;94750.06;10145328;29;20087;-73
2021/10/16 15:25:44;;;;;;;11.77;6.95;;;;;;;8.33;100.00;94744.97;10140325;29;20702;-70
2021/10/16 15:30:44;;;;;;;15.07;8.30;;;;;;;8.28;100.00;94752.19;10140593;29;20036;-69
2021/10/16 15:35:46;;;;;;;15.65;7.95;;;;;;;8.29;100.00;94753.78;10139099;29;20510;-70
2021/10/16 15:40:46;;;;;;;13.25;6.18;;;;;;;8.35;100.00;94761.59;10138813;29;20158;-73
2021/10/16 15:45:47;;;;;;;12.75;7.32;;;;;;;8.32;100.00;94764.78;10153448;29;20051;-71
2021/10/16 15:50:48;;;;;;;13.53;8.40;;;;;;;8.39;100.00;94773.41;10157406;29;20226;-67
2021/10/16 15:55:48;;;;;;;13.13;7.25;;;;;;;8.40;100.00;94782.25;10157429;29;20280;-74
2021/10/16 16:00:49;;;;;;;9.50;6.28;;;;;;;8.37;100.00;94782.75;10152033;29;20474;-72
2021/10/16 16:05:49;;;;;;;11.37;6.77;;;;;;;8.24;100.00;94783.22;10156423;29;20095;-66
2021/10/16 16:10:50;;;;;;;16.67;7.72;;;;;;;8.24;100.00;94794.72;10173429;29;20895;-69
2021/10/16 16:15:51;;;;;;;14.15;7.57;;;;;;;8.18;100.00;94793.88;10156655;29;20035;-68
2021/10/16 16:20:52;;;;;;;15.75;7.72;;;;;;;8.12;100.00;94797.59;10156984;29;20063;-73
2021/10/16 16:25:53;;;;;;;10.07;6.68;;;;;;;8.17;100.00;94807.50;10172772;29;20091;-73
2021/10/16 16:30:53;;;;;;;13.00;7.07;;;;;;;8.06;100.00;94809.28;10156196;29;20127;-73
2021/10/16 16:35:54;;;;;;;12.60;6.93;;;;;;;7.98;100.00;94809.75;10155855;29;20036;-68
2021/10/16 16:40:55;;;;;;;11.32;7.13;;;;;;;7.95;100.00;94823.66;10152435;29;20028;-67
2021/10/16 16:45:56;;;;;;;11.07;6.80;;;;;;;8.01;100.00;94834.16;10148262;29;20032;-74
2021/10/16 16:50:57;;;;;;;11.55;6.68;;;;;;;7.99;100.00;94830.13;10169803;29;20334;-70
2021/10/16 16:55:58;;;;;;;13.65;7.90;;;;;;;7.92;100.00;94838.34;10141109;29;20063;-67
2021/10/16 17:00:58;;;;;;;12.20;6.68;;;;;;;7.86;100.00;94850.06;10128427;29;20036;-72
2021/10/16 17:05:59;;;;;;;9.02;6.22;;;;;;;7.93;100.00;94848.00;10156072;29;20031;-73
2021/10/16 17:10:59;;;;;;;9.98;6.68;;;;;;;7.96;100.00;94858.19;10156877;29;20569;-68
2021/10/16 17:16:00;;;;;;;11.18;7.18;;;;;;;7.97;100.00;94859.00;10171611;29;20028;-69
2021/10/16 17:21:00;;;;;;;16.73;7.68;;;;;;;7.98;100.00;94874.81;10154726;29;20447;-69
2021/10/16 17:26:01;;;;;;;13.48;6.72;;;;;;;7.96;100.00;94876.91;10148855;29;20107;-67
2021/10/16 17:31:01;;;;;;;15.32;6.43;;;;;;;7.96;100.00;94886.81;10139215;29;20012;-71
2021/10/16 17:36:02;;;;;;;13.05;5.88;;;;;;;7.90;100.00;94895.84;10132145;29;20410;-73
2021/10/16 17:41:03;;;;;;;11.98;7.40;;;;;;;7.91;100.00;94881.41;10142317;29;20068;-69
2021/10/16 17:46:03;;;;;;;12.85;7.28;;;;;;;7.80;100.00;94889.34;10135792;29;20115;-69
2021/10/16 17:51:04;;;;;;;16.30;7.53;;;;;;;7.89;100.00;94879.00;10162050;29;20043;-72
2021/10/16 17:56:05;;;;;;;10.48;7.28;;;;;;;7.93;100.00;94882.00;10155432;29;20027;-68
2021/10/16 18:01:11;;;;;;;12.18;7.35;;;;;;;7.92;100.00;94883.03;10154490;29;20043;-73
2021/10/16 18:06:15;;;;;;;10.00;5.85;;;;;;;7.84;100.00;94893.13;10161112;29;20043;-70
2021/10/16 18:11:19;;;;;;;13.05;6.68;;;;;;;7.80;100.00;94896.56;10170745;29;20064;-69
2021/10/16 18:16:19;;;;;;;10.60;6.55;;;;;;;7.82;100.00;94897.91;10157427;29;20032;-69
2021/10/16 18:21:21;;;;;;;10.95;6.28;;;;;;;7.79;100.00;94895.75;10160486;29;20048;-69
2021/10/16 18:26:21;;;;;;;10.13;5.97;;;;;;;7.85;100.00;94899.28;10154071;29;20134;-70
2021/10/16 18:31:22;;;;;;;10.52;6.60;;;;;;;8.00;100.00;94907.47;10160941;29;20354;-68
2021/10/16 18:36:22;;;;;;;12.80;6.32;;;;;;;8.07;100.00;94898.44;10149653;29;20199;-68
2021/10/16 18:41:23;;;;;;;14.77;6.80;;;;;;;7.86;100.00;94911.63;10147259;29;20080;-70
2021/10/16 18:46:23;;;;;;;11.73;7.03;;;;;;;7.94;100.00;94913.84;10161046;29;20310;-70
2021/10/16 18:51:23;;;;;;;11.05;6.97;;;;;;;7.98;100.00;94909.59;10159726;29;20280;-69
2021/10/16 18:56:25;;;;;;;10.15;5.85;;;;;;;7.99;100.00;94915.75;10148560;28;20435;-75
2021/10/16 19:01:26;;;;;;;11.00;7.10;;;;;;;8.05;100.00;94925.44;10174271;29;20055;-70
2021/10/16 19:06:27;;;;;;;10.23;5.80;;;;;;;8.05;100.00;94925.44;10175766;29;20043;-68
2021/10/16 19:11:28;;;;;;;10.30;6.25;;;;;;;7.90;100.00;94922.59;10142496;29;20319;-69
2021/10/16 19:16:28;;;;;;;10.60;7.03;;;;;;;8.10;100.00;94930.06;10159015;29;20826;-69
2021/10/16 19:21:31;;;;;;;11.25;7.22;;;;;;;8.28;100.00;94932.38;10144028;29;20312;-70
2021/10/16 19:26:31;;;;;;;10.95;6.00;;;;;;;8.31;100.00;94928.38;10138626;29;20458;-68
2021/10/16 19:31:32;;;;;;;21.05;11.65;;;;;;;8.25;100.00;94921.34;10139519;29;20024;-70
2021/10/16 19:36:32;;;;;;;12.77;6.78;;;;;;;8.20;100.00;94928.28;10155362;29;20474;-73
2021/10/16 19:41:34;;;;;;;12.30;6.50;;;;;;;8.24;100.00;94935.81;10137833;29;20472;-69
2021/10/16 19:46:36;;;;;;;11.55;5.95;;;;;;;8.10;100.00;94941.56;10140620;29;20043;-68
2021/10/16 19:51:37;;;;;;;15.55;7.53;;;;;;;8.14;100.00;94941.88;10137326;29;20112;-68
2021/10/16 19:56:37;;;;;;;16.30;5.88;;;;;;;8.03;100.00;94944.44;10133270;29;20036;-74
2021/10/16 20:01:37;;;;;;;11.98;6.60;;;;;;;8.00;100.00;94950.28;10173017;29;20032;-70
2021/10/16 20:06:38;;;;;;;11.20;6.90;;;;;;;8.20;100.00;94956.91;10158846;29;20036;-69
2021/10/16 20:11:38;;;;;;;11.43;6.00;;;;;;;8.24;100.00;94954.56;10158556;29;20284;-68
2021/10/16 20:16:39;;;;;;;12.98;6.65;;;;;;;8.26;100.00;94958.59;10158190;29;20039;-74
2021/10/16 20:21:42;;;;;;;12.00;6.55;;;;;;;8.35;100.00;94957.06;10156694;29;20036;-68
2021/10/16 20:26:44;;;;;;;12.60;6.60;;;;;;;8.32;100.00;94962.94;10165177;29;20052;-68
2021/10/16 20:31:45;;;;;;;12.25;6.63;;;;;;;8.20;100.00;94965.78;10132556;29;20032;-70
2021/10/16 20:36:45;;;;;;;11.57;7.15;;;;;;;8.24;100.00;94976.78;10157521;29;20765;-69
2021/10/16 20:41:46;;;;;;;15.32;7.20;;;;;;;8.12;100.00;94973.44;10156331;29;20395;-70
2021/10/16 20:46:46;;;;;;;15.70;8.50;;;;;;;7.97;100.00;94976.78;10156740;29;20035;-69
2021/10/16 20:51:46;;;;;;;12.83;7.53;;;;;;;7.96;100.00;94983.97;10128091;29;20771;-74
2021/10/16 20:56:47;;;;;;;14.38;8.73;;;;;;;7.81;100.00;94983.78;10148795;29;20431;-72
2021/10/16 21:01:48;;;;;;;16.02;8.73;;;;;;;7.78;100.00;94989.66;10157460;29;20095;-68
2021/10/16 21:06:49;;;;;;;14.15;8.65;;;;;;;7.65;100.00;94994.31;10162007;29;20121;-72
2021/10/16 21:11:49;;;;;;;15.98;8.90;;;;;;;7.34;100.00;94993.91;10164414;29;20035;-68
2021/10/16 21:16:54;;;;;;;18.93;9.73;;;;;;;7.31;100.00;94994.41;10164794;29;20118;-68
2021/10/16 21:21:54;;;;;;;23.95;11.45;;;;;;;7.22;100.00;95003.88;10163880;29;20304;-68
2021/10/16 21:26:55;;;;;;;20.63;11.02;;;;;;;7.30;100.00;95006.13;10178783;29;20040;-68
2021/10/16 21:31:55;;;;;;;19.20;10.23;;;;;;;7.19;100.00;95007.84;10162868;29;20034;-70
2021/10/16 21:36:56;;;;;;;25.63;11.85;;;;;;;7.15;100.00;95012.06;10163365;29;20641;-73
2021/10/16 21:41:56;;;;;;;19.90;9.97;;;;;;;7.11;100.00;95012.81;10310380;23;20086;-72
2021/10/16 21:46:57;;;;;;;22.17;10.38;;;;;;;7.11;100.00;95018.94;10281808;28;20278;-69
2021/10/16 21:52:00;;;;;;;23.33;12.23;;;;;;;7.06;100.00;95023.41;10280984;28;20113;-68
2021/10/16 21:57:00;;;;;;;18.65;10.35;;;;;;;7.11;100.00;95028.84;10281079;28;20034;-67
2021/10/16 22:02:00;;;;;;;20.52;11.32;;;;;;;7.02;100.00;95023.09;10279176;28;20049;-67
2021/10/16 22:07:01;;;;;;;31.33;13.50;;;;;;;7.03;100.00;95022.03;10280723;28;20379;-68
2021/10/16 22:12:01;;;;;;;20.88;12.60;;;;;;;6.97;100.00;95023.81;10280705;28;20794;-71
2021/10/16 22:17:03;;;;;;;23.30;12.55;;;;;;;7.00;100.00;95012.66;10279582;28;20034;-68
2021/10/16 22:22:03;;;;;;;23.38;12.23;;;;;;;7.05;100.00;95014.59;10278136;28;20069;-69
2021/10/16 22:27:04;;;;;;;22.10;11.30;;;;;;;6.98;100.00;95019.28;10277798;28;20532;-74
2021/10/16 22:32:05;;;;;;;23.83;11.65;;;;;;;7.00;100.00;95019.84;10277232;28;20035;-70
2021/10/16 22:37:05;;;;;;;20.05;11.05;;;;;;;6.99;100.00;95010.19;10287802;28;20019;-68
2021/10/16 22:42:10;;;;;;;22.23;11.05;;;;;;;7.15;100.00;95011.25;10281253;28;20047;-70
2021/10/16 22:47:11;;;;;;;23.00;10.88;;;;;;;7.32;100.00;95020.06;10296231;28;20890;-68
2021/10/16 22:52:11;;;;;;;21.05;11.75;;;;;;;7.11;100.00;95010.13;10280953;28;20045;-68
2021/10/16 22:57:20;;;;;;;20.35;10.32;;;;;;;7.10;100.00;95011.19;10279757;28;20030;-70
2021/10/16 23:02:21;;;;;;;19.27;10.48;;;;;;;7.18;100.00;95011.56;10295785;28;20039;-69
2021/10/16 23:07:21;;;;;;;18.42;9.55;;;;;;;7.22;100.00;95014.56;10295526;28;20409;-70
2021/10/16 23:12:21;;;;;;;17.90;9.77;;;;;;;7.21;100.00;95012.94;10279194;28;20045;-72
2021/10/16 23:17:22;;;;;;;18.88;10.48;;;;;;;7.31;100.00;95021.13;10279947;28;21049;-70